createdAt,value
2018-03-24T00:01:38.005Z,77.05
2018-03-24T00:04:11.590Z,77.41
2018-03-24T00:06:45.095Z,77.59
2018-03-24T00:09:18.793Z,77.29
2018-03-24T00:11:52.377Z,77.14
2018-03-24T00:14:26.114Z,77.47
2018-03-24T00:16:59.704Z,77.83
2018-03-24T00:19:33.382Z,78.71
2018-03-24T00:22:06.882Z,78.42
2018-03-24T00:24:40.513Z,79.04
2018-03-24T00:27:14.070Z,78.81
2018-03-24T00:29:47.642Z,77.92
2018-03-24T00:32:21.274Z,77.38
2018-03-24T00:34:54.834Z,77.20
2018-03-24T00:37:28.454Z,77.55
2018-03-24T00:40:02.105Z,78.09
2018-03-24T00:42:35.672Z,78.60
2018-03-24T00:45:09.257Z,79.27
2018-03-24T00:47:42.821Z,80.13
2018-03-24T00:50:16.474Z,80.42
2018-03-24T00:52:50.154Z,81.25
2018-03-24T00:55:23.684Z,81.73
2018-03-24T00:57:57.409Z,82.32
2018-03-24T01:00:31.011Z,82.97
2018-03-24T01:03:04.613Z,83.45
2018-03-24T01:05:38.368Z,83.75
2018-03-24T01:08:12.037Z,83.92
2018-03-24T01:10:45.641Z,84.49
2018-03-24T01:13:19.228Z,84.98
2018-03-24T01:15:53.092Z,84.92
2018-03-24T01:18:26.839Z,84.74
2018-03-24T01:21:00.545Z,84.98
2018-03-24T01:23:34.185Z,85.32
2018-03-24T01:26:07.761Z,85.32
2018-03-24T01:28:41.523Z,85.47
2018-03-24T01:31:15.077Z,85.63
2018-03-24T01:33:48.764Z,85.89
2018-03-24T01:42:20.866Z,86.01
2018-03-24T01:44:54.486Z,86.10
2018-03-24T01:47:28.173Z,86.12
2018-03-24T01:50:01.886Z,86.17
2018-03-24T01:52:35.604Z,86.13
2018-03-24T01:55:09.281Z,86.25
2018-03-24T01:57:42.955Z,86.33
2018-03-24T02:00:16.560Z,86.44
2018-03-24T02:02:50.213Z,86.34
2018-03-24T02:05:23.934Z,86.18
2018-03-24T02:07:57.614Z,86.21
2018-03-24T02:10:31.245Z,86.14
2018-03-24T02:13:04.977Z,85.99
2018-03-24T02:15:38.630Z,85.74
2018-03-24T02:18:12.249Z,85.74
2018-03-24T02:20:45.908Z,85.68
2018-03-24T02:23:19.611Z,85.61
2018-03-24T02:25:53.409Z,85.80
2018-03-24T02:28:26.885Z,85.87
2018-03-24T02:31:00.557Z,86.18
2018-03-24T02:33:34.263Z,86.29
2018-03-24T02:36:07.922Z,86.54
2018-03-24T02:38:41.586Z,86.66
2018-03-24T02:41:15.254Z,86.71
2018-03-24T02:43:48.854Z,86.89
2018-03-24T02:49:21.914Z,87.12
2018-03-24T02:51:55.524Z,87.08
2018-03-24T02:54:29.193Z,87.10
2018-03-24T02:57:02.728Z,87.25
2018-03-24T02:59:36.478Z,87.41
2018-03-24T03:02:10.050Z,87.15
2018-03-24T03:04:43.690Z,87.27
2018-03-24T03:07:17.230Z,87.45
2018-03-24T03:09:51.026Z,87.89
2018-03-24T03:12:24.711Z,87.70
2018-03-24T03:14:58.326Z,87.69
2018-03-24T03:17:31.790Z,87.92
2018-03-24T03:20:05.398Z,88.01
2018-03-24T03:22:39.075Z,87.93
2018-03-24T03:25:18.393Z,87.73
2018-03-24T03:27:51.979Z,87.82
2018-03-24T03:33:24.307Z,87.74
2018-03-24T03:35:57.990Z,87.80
2018-03-24T03:38:31.642Z,87.73
2018-03-24T03:41:05.326Z,87.73
2018-03-24T03:43:38.868Z,87.80
2018-03-24T03:46:12.487Z,87.87
2018-03-24T03:48:46.026Z,88.25
2018-03-24T03:51:19.654Z,88.07
2018-03-24T03:53:53.415Z,88.17
2018-03-24T03:56:27.023Z,88.17
2018-03-24T03:59:00.563Z,88.16
2018-03-24T04:01:34.319Z,88.19
2018-03-24T04:04:08.026Z,88.14
2018-03-24T04:06:41.699Z,88.58
2018-03-24T04:09:15.378Z,88.63
2018-03-24T04:11:49.053Z,88.67
2018-03-24T04:14:23.142Z,88.64
2018-03-24T04:16:56.736Z,88.44
2018-03-24T04:19:30.378Z,88.22
2018-03-24T04:22:04.045Z,88.31
2018-03-24T04:24:37.651Z,88.34
2018-03-24T04:30:10.403Z,88.23
2018-03-24T04:32:44.062Z,88.15
2018-03-24T04:35:17.706Z,88.13
2018-03-24T04:37:51.363Z,88.23
2018-03-24T04:40:24.983Z,88.31
2018-03-24T04:42:58.747Z,88.26
2018-03-24T04:45:32.340Z,88.45
2018-03-24T04:48:05.928Z,88.42
2018-03-24T04:50:39.614Z,88.61
2018-03-24T04:53:13.329Z,88.61
2018-03-24T04:55:46.907Z,88.64
2018-03-24T04:58:20.671Z,88.98
2018-03-24T05:00:54.471Z,88.83
2018-03-24T05:03:28.286Z,88.66
2018-03-24T05:06:01.909Z,88.75
2018-03-24T05:08:35.622Z,88.79
2018-03-24T05:11:09.718Z,88.85
2018-03-24T05:13:43.250Z,88.90
2018-03-24T05:16:16.931Z,88.63
2018-03-24T05:18:50.715Z,88.26
2018-03-24T05:21:24.286Z,88.05
2018-03-24T05:23:57.872Z,87.98
2018-03-24T05:29:31.008Z,87.68
2018-03-24T05:32:04.732Z,87.86
2018-03-24T05:34:38.412Z,87.94
2018-03-24T05:37:12.111Z,87.64
2018-03-24T05:39:45.892Z,86.95
2018-03-24T05:42:19.567Z,86.08
2018-03-24T05:44:53.154Z,85.72
2018-03-24T05:47:26.823Z,85.42
2018-03-24T05:50:00.384Z,85.18
2018-03-24T05:52:33.978Z,84.96
2018-03-24T05:55:07.887Z,84.85
2018-03-24T05:57:41.575Z,84.12
2018-03-24T06:00:15.322Z,84.37
2018-03-24T06:02:49.108Z,83.72
2018-03-24T06:05:22.802Z,83.43
2018-03-24T06:07:56.388Z,83.77
2018-03-24T06:10:30.068Z,83.47
2018-03-24T06:13:03.714Z,83.51
2018-03-24T06:15:37.382Z,83.24
2018-03-24T06:18:11.099Z,83.20
2018-03-24T06:20:44.795Z,82.07
2018-03-24T06:23:18.491Z,81.96
2018-03-24T06:25:52.035Z,82.07
2018-03-24T06:28:25.698Z,81.22
2018-03-24T06:31:02.278Z,81.11
2018-03-24T06:33:36.046Z,80.99
2018-03-24T06:36:12.246Z,81.04
2018-03-24T06:38:46.008Z,81.04
2018-03-24T06:41:19.664Z,79.58
2018-03-24T06:43:53.468Z,79.65
2018-03-24T06:46:27.066Z,79.42
2018-03-24T06:49:00.783Z,78.91
2018-03-24T06:51:34.706Z,78.24
2018-03-24T06:54:08.370Z,77.19
2018-03-24T06:56:42.047Z,77.44
2018-03-24T06:59:15.770Z,75.65
2018-03-24T07:01:49.618Z,73.77
2018-03-24T07:04:23.310Z,71.90
2018-03-24T07:06:56.931Z,67.37
2018-03-24T07:09:30.622Z,62.77
2018-03-24T07:12:04.454Z,61.38
2018-03-24T07:14:38.002Z,57.29
2018-03-24T07:23:10.262Z,50.03
2018-03-24T07:25:44.027Z,52.10
2018-03-24T07:28:17.764Z,47.57
2018-03-24T07:30:51.518Z,46.92
2018-03-24T07:33:25.232Z,45.63
2018-03-24T07:35:58.842Z,44.58
2018-03-24T07:38:32.519Z,44.90
2018-03-24T07:41:06.131Z,42.64
2018-03-24T07:43:39.912Z,43.38
2018-03-24T07:46:13.491Z,43.29
2018-03-24T07:48:47.207Z,43.38
2018-03-24T07:51:20.863Z,41.78
2018-03-24T07:53:54.578Z,41.97
2018-03-24T07:56:28.363Z,41.57
2018-03-24T07:59:02.129Z,38.02
2018-03-24T08:01:35.937Z,39.02
2018-03-24T08:04:09.478Z,39.32
2018-03-24T08:06:43.303Z,38.95
2018-03-24T08:09:17.037Z,37.75
2018-03-24T08:11:50.550Z,38.87
2018-03-24T08:14:24.246Z,37.62
2018-03-24T08:17:08.654Z,35.92
2018-03-24T08:19:42.222Z,36.08
2018-03-24T08:22:15.863Z,36.04
2018-03-24T08:24:49.511Z,38.69
2018-03-24T08:27:23.049Z,39.02
2018-03-24T08:29:56.729Z,40.39
2018-03-24T08:32:30.478Z,38.98
2018-03-24T08:35:04.082Z,39.09
2018-03-24T08:37:37.842Z,41.83
2018-03-24T08:40:11.557Z,41.75
2018-03-24T08:42:45.200Z,41.29
2018-03-24T08:45:18.787Z,41.25
2018-03-24T08:47:52.609Z,41.81
2018-03-24T08:50:26.336Z,42.31
2018-03-24T08:52:59.906Z,41.19
2018-03-24T08:55:33.510Z,40.93
2018-03-24T08:58:07.208Z,41.30
2018-03-24T09:00:40.947Z,41.99
2018-03-24T09:03:14.654Z,42.82
2018-03-24T09:05:48.291Z,40.98
2018-03-24T09:08:22.078Z,39.89
2018-03-24T09:10:55.934Z,40.25
2018-03-24T09:13:29.767Z,38.85
2018-03-24T09:16:03.481Z,38.40
2018-03-24T09:18:37.211Z,39.67
2018-03-24T09:21:10.868Z,40.08
2018-03-24T09:23:44.470Z,40.22
2018-03-24T09:26:18.099Z,40.11
2018-03-24T09:28:51.747Z,40.62
2018-03-24T09:31:25.476Z,39.58
2018-03-24T09:33:59.196Z,40.15
2018-03-24T09:36:32.847Z,41.50
2018-03-24T09:39:06.410Z,42.08
2018-03-24T09:41:40.175Z,44.93
2018-03-24T09:44:13.768Z,46.00
2018-03-24T09:46:47.498Z,45.97
2018-03-24T09:49:21.091Z,46.13
2018-03-24T09:51:54.780Z,46.47
2018-03-24T09:54:28.724Z,46.54
2018-03-24T09:57:02.462Z,48.73
2018-03-24T09:59:36.230Z,46.97
2018-03-24T10:02:10.054Z,46.58
2018-03-24T10:04:43.796Z,46.29
2018-03-24T10:07:17.499Z,44.54
2018-03-24T10:09:51.222Z,45.25
2018-03-24T10:12:24.967Z,45.88
2018-03-24T10:14:58.799Z,44.63
2018-03-24T10:17:32.506Z,44.97
2018-03-24T10:20:06.162Z,43.47
2018-03-24T10:22:51.703Z,43.29
2018-03-24T10:25:25.382Z,43.37
2018-03-24T10:27:59.175Z,44.94
2018-03-24T10:30:32.946Z,43.72
2018-03-24T10:33:06.556Z,42.57
2018-03-24T10:35:40.137Z,43.06
2018-03-24T10:38:13.896Z,43.95
2018-03-24T10:40:47.448Z,43.43
2018-03-24T10:43:26.845Z,42.55
2018-03-24T10:46:00.543Z,41.91
2018-03-24T10:48:34.217Z,41.11
2018-03-24T10:51:07.838Z,42.51
2018-03-24T10:53:41.546Z,41.99
2018-03-24T10:56:15.133Z,39.54
2018-03-24T10:58:48.943Z,38.28
2018-03-24T11:01:24.943Z,37.75
2018-03-24T11:03:58.557Z,35.34
2018-03-24T11:06:32.272Z,34.16
2018-03-24T11:09:05.927Z,35.43
2018-03-24T11:11:39.471Z,38.56
2018-03-24T11:14:13.067Z,37.43
2018-03-24T11:16:46.818Z,34.54
2018-03-24T11:19:20.608Z,32.96
2018-03-24T11:21:54.351Z,34.17
2018-03-24T11:24:27.895Z,35.92
2018-03-24T11:30:10.330Z,37.71
2018-03-24T11:32:44.078Z,38.94
2018-03-24T11:35:17.752Z,40.08
2018-03-24T11:37:51.498Z,40.27
2018-03-24T11:40:25.163Z,39.43
2018-03-24T11:42:58.834Z,40.19
2018-03-24T11:45:32.558Z,40.54
2018-03-24T11:48:06.299Z,41.04
2018-03-24T11:50:40.099Z,39.69
2018-03-24T11:53:13.903Z,38.86
2018-03-24T11:55:47.734Z,39.92
2018-03-24T11:58:21.289Z,41.15
2018-03-24T12:00:54.878Z,39.44
2018-03-24T12:03:28.630Z,39.88
2018-03-24T12:06:02.414Z,41.08
2018-03-24T12:08:36.218Z,39.98
2018-03-24T12:11:10.059Z,40.50
2018-03-24T12:13:43.897Z,39.96
2018-03-24T12:16:17.606Z,40.60
2018-03-24T12:18:51.213Z,40.28
2018-03-24T12:21:24.864Z,40.17
2018-03-24T12:23:58.532Z,39.63
2018-03-24T12:26:32.173Z,40.64
2018-03-24T12:29:05.926Z,41.54
2018-03-24T12:31:39.598Z,41.11
2018-03-24T12:34:13.263Z,40.63
2018-03-24T12:36:46.926Z,40.17
2018-03-24T12:39:20.535Z,40.60
2018-03-24T12:41:54.263Z,39.50
2018-03-24T12:44:27.858Z,39.77
2018-03-24T12:47:01.613Z,38.06
2018-03-24T12:49:35.198Z,39.20
2018-03-24T12:52:08.996Z,39.64
2018-03-24T12:54:42.582Z,40.03
2018-03-24T12:57:16.331Z,41.39
2018-03-24T12:59:50.066Z,41.38
2018-03-24T13:02:23.784Z,40.21
2018-03-24T13:04:57.491Z,40.41
2018-03-24T13:07:31.223Z,40.95
2018-03-24T13:10:04.908Z,40.91
2018-03-24T13:12:38.506Z,40.01
2018-03-24T13:15:12.147Z,41.06
2018-03-24T13:17:45.847Z,42.04
2018-03-24T13:20:19.510Z,41.25
2018-03-24T13:22:53.111Z,40.12
2018-03-24T13:25:26.786Z,40.19
2018-03-24T13:28:00.627Z,40.37
2018-03-24T13:30:34.188Z,41.29
2018-03-24T13:33:07.967Z,42.63
2018-03-24T13:35:41.623Z,40.86
2018-03-24T13:38:15.180Z,41.39
2018-03-24T13:40:48.879Z,41.51
2018-03-24T13:43:22.594Z,41.84
2018-03-24T13:45:56.382Z,42.14
2018-03-24T13:48:30.026Z,43.57
2018-03-24T13:51:03.759Z,42.24
2018-03-24T13:53:37.455Z,43.71
2018-03-24T13:56:11.298Z,42.15
2018-03-24T13:58:44.896Z,41.80
2018-03-24T14:01:18.523Z,41.03
2018-03-24T14:03:52.086Z,41.09
2018-03-24T14:06:25.709Z,41.28
2018-03-24T14:08:59.432Z,40.62
2018-03-24T14:11:33.152Z,41.42
2018-03-24T14:14:06.739Z,42.78
2018-03-24T14:16:40.502Z,40.93
2018-03-24T14:19:14.252Z,42.10
2018-03-24T14:21:47.967Z,40.16
2018-03-24T14:24:21.719Z,39.84
2018-03-24T14:26:59.467Z,39.37
2018-03-24T14:29:33.266Z,39.26
2018-03-24T14:32:07.031Z,38.55
2018-03-24T14:34:40.911Z,37.12
2018-03-24T14:37:14.539Z,37.03
2018-03-24T14:39:48.155Z,37.58
2018-03-24T14:42:21.734Z,37.62
2018-03-24T14:44:55.490Z,35.30
2018-03-24T14:47:29.288Z,34.86
2018-03-24T14:50:02.987Z,35.93
2018-03-24T14:52:36.823Z,36.48
2018-03-24T14:55:10.415Z,38.03
2018-03-24T14:57:44.093Z,37.23
2018-03-24T15:00:17.655Z,35.78
2018-03-24T15:02:51.262Z,36.13
2018-03-24T15:05:24.991Z,37.81
2018-03-24T15:07:58.582Z,38.96
2018-03-24T15:10:32.160Z,40.07
2018-03-24T15:13:05.994Z,41.74
2018-03-24T15:15:39.683Z,42.46
2018-03-24T15:18:13.413Z,42.97
2018-03-24T15:20:47.259Z,43.52
2018-03-24T15:23:21.175Z,43.82
2018-03-24T15:25:54.743Z,39.86
2018-03-24T15:28:28.459Z,35.66
2018-03-24T15:31:14.238Z,32.11
2018-03-24T15:33:59.859Z,31.88
2018-03-24T15:36:43.500Z,32.46
2018-03-24T15:39:17.170Z,33.00
2018-03-24T15:41:50.790Z,33.23
2018-03-24T15:44:24.559Z,32.03
2018-03-24T15:49:57.803Z,32.78
2018-03-24T15:52:31.514Z,31.67
2018-03-24T15:55:05.099Z,33.49
2018-03-24T15:57:39.126Z,33.64
2018-03-24T16:00:12.787Z,35.18
2018-03-24T16:02:46.455Z,34.83
2018-03-24T16:05:20.146Z,34.19
2018-03-24T16:07:53.745Z,33.73
2018-03-24T16:10:27.467Z,33.82
2018-03-24T16:13:01.070Z,32.43
2018-03-24T16:15:34.716Z,33.24
2018-03-24T16:18:08.270Z,32.60
2018-03-24T16:20:42.004Z,33.12
2018-03-24T16:23:15.663Z,33.49
2018-03-24T16:25:49.335Z,32.25
2018-03-24T16:28:23.045Z,33.85
2018-03-24T16:30:56.841Z,33.69
2018-03-24T16:33:30.571Z,33.95
2018-03-24T16:36:04.282Z,34.95
2018-03-24T16:38:37.874Z,36.28
2018-03-24T16:41:11.634Z,37.64
2018-03-24T16:43:45.375Z,38.60
2018-03-24T16:46:19.123Z,40.15
2018-03-24T16:48:52.892Z,40.69
2018-03-24T16:51:26.676Z,42.24
2018-03-24T16:54:00.310Z,43.01
2018-03-24T16:56:33.918Z,44.44
2018-03-24T16:59:07.705Z,44.62
2018-03-24T17:01:41.443Z,44.99
2018-03-24T17:04:15.124Z,46.96
2018-03-24T17:06:48.889Z,44.91
2018-03-24T17:09:22.660Z,44.94
2018-03-24T17:11:56.424Z,44.79
2018-03-24T17:14:30.079Z,46.50
2018-03-24T17:17:03.819Z,47.34
2018-03-24T17:19:37.483Z,48.19
2018-03-24T17:22:11.017Z,48.26
2018-03-24T17:24:44.711Z,49.88
2018-03-24T17:27:18.467Z,49.30
2018-03-24T17:29:52.184Z,50.32
2018-03-24T17:32:25.748Z,50.26
2018-03-24T17:35:00.060Z,50.33
2018-03-24T17:37:33.802Z,50.39
2018-03-24T17:40:07.622Z,50.84
2018-03-24T17:42:41.256Z,51.17
2018-03-24T17:45:14.870Z,51.72
2018-03-24T17:47:48.410Z,52.14
2018-03-24T17:50:22.026Z,52.65
2018-03-24T17:52:55.675Z,53.25
2018-03-24T17:55:29.345Z,53.66
2018-03-24T17:58:03.052Z,53.17
2018-03-24T18:00:36.652Z,54.35
2018-03-24T18:03:10.475Z,54.49
2018-03-24T18:05:44.238Z,55.46
2018-03-24T18:08:18.078Z,56.03
2018-03-24T18:10:51.874Z,55.98
2018-03-24T18:13:25.523Z,55.76
2018-03-24T18:15:59.203Z,56.00
2018-03-24T18:18:32.730Z,56.51
2018-03-24T18:21:06.409Z,56.21
2018-03-24T18:23:39.950Z,56.39
2018-03-24T18:26:13.678Z,56.59
2018-03-24T18:28:47.330Z,56.75
2018-03-24T18:31:21.155Z,56.53
2018-03-24T18:33:54.694Z,56.34
2018-03-24T18:36:28.344Z,56.82
2018-03-24T18:39:01.941Z,56.96
2018-03-24T18:41:35.698Z,57.09
2018-03-24T18:44:09.357Z,57.26
2018-03-24T18:46:43.074Z,56.93
2018-03-24T18:49:16.708Z,57.08
2018-03-24T18:51:50.527Z,57.40
2018-03-24T18:54:24.310Z,57.54
2018-03-24T18:56:57.990Z,57.08
2018-03-24T18:59:31.577Z,56.87
2018-03-24T19:02:05.126Z,56.67
2018-03-24T19:04:38.790Z,57.19
2018-03-24T19:07:12.391Z,58.53
2018-03-24T19:09:46.077Z,57.69
2018-03-24T19:12:19.796Z,57.22
2018-03-24T19:14:53.317Z,57.55
2018-03-24T19:17:27.057Z,57.40
2018-03-24T19:20:00.732Z,57.63
2018-03-24T19:22:34.346Z,58.15
2018-03-24T19:25:08.205Z,59.07
2018-03-24T19:27:41.869Z,59.58
2018-03-24T19:30:15.546Z,60.24
2018-03-24T19:32:49.215Z,60.47
2018-03-24T19:35:22.822Z,60.47
2018-03-24T19:37:56.428Z,60.74
2018-03-24T19:40:30.218Z,61.44
2018-03-24T19:43:03.777Z,61.75
2018-03-24T19:45:37.438Z,62.50
2018-03-24T19:48:11.038Z,62.90
2018-03-24T19:50:44.752Z,63.12
2018-03-24T19:53:18.393Z,63.27
2018-03-24T19:55:52.070Z,62.73
2018-03-24T19:58:25.755Z,62.75
2018-03-24T20:00:59.470Z,62.43
2018-03-24T20:03:33.154Z,62.98
2018-03-24T20:06:06.702Z,63.01
2018-03-24T20:08:40.357Z,63.40
2018-03-24T20:11:14.028Z,63.97
2018-03-24T20:13:47.748Z,63.53
2018-03-24T20:16:21.243Z,63.27
2018-03-24T20:18:54.977Z,63.67
2018-03-24T20:21:28.574Z,64.00
2018-03-24T20:24:02.562Z,63.31
2018-03-24T20:26:36.258Z,63.49
2018-03-24T20:29:09.899Z,62.93
2018-03-24T20:31:43.470Z,62.32
2018-03-24T20:34:17.126Z,62.54
2018-03-24T20:36:50.757Z,62.22
2018-03-24T20:39:24.401Z,62.79
2018-03-24T20:41:58.012Z,63.21
2018-03-24T20:44:31.598Z,63.38
2018-03-24T20:47:05.090Z,63.93
2018-03-24T20:49:38.670Z,64.20
2018-03-24T20:52:12.222Z,64.61
2018-03-24T20:54:45.833Z,64.84
2018-03-24T20:57:19.498Z,65.19
2018-03-24T20:59:53.154Z,65.35
2018-03-24T21:02:26.682Z,65.23
2018-03-24T21:05:00.326Z,65.21
2018-03-24T21:07:33.866Z,65.00
2018-03-24T21:10:07.478Z,65.46
2018-03-24T21:12:41.126Z,65.27
2018-03-24T21:15:14.705Z,64.73
2018-03-24T21:17:48.438Z,65.03
2018-03-24T21:20:22.142Z,64.48
2018-03-24T21:22:55.796Z,64.96
2018-03-24T21:25:29.422Z,64.45
2018-03-24T21:28:03.021Z,64.55
2018-03-24T21:30:36.612Z,64.23
2018-03-24T21:33:10.138Z,64.14
2018-03-24T21:35:43.685Z,64.17
2018-03-24T21:38:17.241Z,64.34
2018-03-24T21:40:50.830Z,64.01
2018-03-24T21:43:24.594Z,63.49
2018-03-24T21:45:58.150Z,63.40
2018-03-24T21:48:31.778Z,64.08
2018-03-24T21:51:05.362Z,64.13
2018-03-24T21:53:38.936Z,63.92
2018-03-24T21:56:12.570Z,63.59
2018-03-24T21:58:46.171Z,63.80
2018-03-24T22:01:19.899Z,63.66
2018-03-24T22:03:53.376Z,63.82
2018-03-24T22:06:27.058Z,63.48
2018-03-24T22:09:00.691Z,63.20
2018-03-24T22:11:34.339Z,63.03
2018-03-24T22:14:07.862Z,62.91
2018-03-24T22:16:41.458Z,63.42
2018-03-24T22:19:15.266Z,63.51
2018-03-24T22:21:48.973Z,63.23
2018-03-24T22:24:22.626Z,63.02
2018-03-24T22:26:56.266Z,62.86
2018-03-24T22:29:29.818Z,62.56
2018-03-24T22:32:03.364Z,62.86
2018-03-24T22:34:37.033Z,62.51
2018-03-24T22:37:10.757Z,63.00
2018-03-24T22:39:44.380Z,62.97
2018-03-24T22:42:17.957Z,62.54
2018-03-24T22:44:51.469Z,62.59
2018-03-24T22:47:25.146Z,62.48
2018-03-24T22:49:58.717Z,62.68
2018-03-24T22:52:32.392Z,62.62
2018-03-24T22:55:06.178Z,62.37
2018-03-24T22:57:39.802Z,62.52
2018-03-24T23:00:13.480Z,62.47
2018-03-24T23:02:47.064Z,62.95
2018-03-24T23:05:20.838Z,62.89
2018-03-24T23:07:54.538Z,63.04
2018-03-24T23:10:28.143Z,63.19
2018-03-24T23:13:01.861Z,63.28
2018-03-24T23:15:35.415Z,63.24
2018-03-24T23:18:09.098Z,63.50
2018-03-24T23:20:42.677Z,63.59
2018-03-24T23:23:16.279Z,62.88
2018-03-24T23:25:49.846Z,62.85
2018-03-24T23:28:23.490Z,62.97
2018-03-24T23:30:57.102Z,63.08
2018-03-24T23:33:30.705Z,63.11
2018-03-24T23:36:04.277Z,63.27
2018-03-24T23:38:37.889Z,63.23
2018-03-24T23:41:11.497Z,63.15
2018-03-24T23:43:45.092Z,62.99
2018-03-24T23:46:18.658Z,62.83
2018-03-24T23:48:52.386Z,62.75
2018-03-24T23:51:26.037Z,63.31
2018-03-24T23:53:59.644Z,63.22
2018-03-24T23:56:33.249Z,63.71
2018-03-24T23:59:06.833Z,63.73
